Time;durP1;ratioP1;P1;durP2;ratioP2;P2;SDS_P1;SDS_P2;PMS_P1;PMS_P2;Temp;Humidity;BMP_temperature;BMP_pressure;BME280_temperature;BME280_humidity;BME280_pressure;Samples;Min_cycle;Max_cycle;Signal;HPM_P1;HPM_P2
2022/04/26 03:37:12;;;;;;;26.90;3.40;;;13.80;71.60;;;13.98;51.85;94631.09;5058643;28;20953;-55
2022/04/26 03:39:40;;;;;;;31.73;2.70;;;13.80;71.60;;;13.99;52.46;94637.22;5060838;28;20534;-57
2022/04/26 03:42:08;;;;;;;15.60;2.83;;;13.80;72.20;;;13.98;52.13;94652.25;5060226;28;20562;-56
2022/04/26 03:44:36;;;;;;;14.13;2.20;;;13.80;72.00;;;14.01;51.98;94655.56;5060991;28;20455;-57
2022/04/26 03:47:03;;;;;;;5.47;1.43;;;13.70;71.60;;;13.99;51.74;94656.53;5059144;28;20464;-56
2022/04/26 03:49:32;;;;;;;2.07;1.93;;;13.80;71.40;;;13.99;52.10;94656.53;5060450;28;20961;-57
2022/04/26 03:51:59;;;;;;;8.90;2.10;;;13.80;71.90;;;13.99;51.99;94651.25;5057370;28;20455;-55
2022/04/26 03:54:27;;;;;;;3.50;1.80;;;13.80;72.20;;;14.01;52.20;94655.56;5057126;28;21021;-57
2022/04/26 03:56:54;;;;;;;14.33;2.00;;;13.80;72.10;;;14.01;52.21;94655.56;5054788;28;20456;-57
2022/04/26 03:59:21;;;;;;;10.80;2.33;;;13.80;72.70;;;14.02;52.78;94660.69;5056705;28;20511;-57
2022/04/26 04:01:48;;;;;;;25.43;2.50;;;13.80;73.20;;;14.03;52.48;94656.22;5061085;28;20504;-57
2022/04/26 04:04:16;;;;;;;8.23;2.33;;;13.80;73.20;;;14.03;52.17;94664.16;5059940;28;20451;-58
2022/04/26 04:06:44;;;;;;;7.77;2.60;;;13.80;73.00;;;14.05;52.21;94670.09;5053951;28;20566;-58
2022/04/26 04:09:12;;;;;;;10.30;2.90;;;13.80;73.30;;;14.06;52.39;94671.75;5061163;28;20478;-56
2022/04/26 04:11:39;;;;;;;9.80;2.53;;;13.80;73.10;;;14.07;52.45;94666.28;5059058;28;20843;-58
2022/04/26 04:14:06;;;;;;;11.03;2.30;;;13.80;72.90;;;14.10;52.00;94670.44;5064230;28;20495;-57
2022/04/26 04:16:33;;;;;;;7.80;2.57;;;13.80;73.00;;;14.13;52.32;94672.75;5059432;28;20852;-56
2022/04/26 04:19:20;;;;;;;15.63;2.80;;;13.90;73.40;;;14.17;52.34;94676.69;5061852;28;20531;-57
2022/04/26 04:21:49;;;;;;;10.80;2.67;;;13.90;73.40;;;14.18;52.66;94678.34;5058893;28;20471;-56
2022/04/26 04:24:17;;;;;;;14.40;2.37;;;13.90;73.40;;;14.21;52.47;94685.94;5061717;28;20504;-58
2022/04/26 04:26:44;;;;;;;17.40;3.47;;;14.00;73.40;;;14.26;52.60;94690.75;5058115;28;20476;-57
2022/04/26 04:29:11;;;;;;;8.17;2.37;;;14.00;73.50;;;14.29;52.44;94682.47;5060017;28;20463;-58
2022/04/26 04:31:39;;;;;;;3.90;2.33;;;14.00;73.50;;;14.33;51.94;94686.44;5055848;28;20501;-57
2022/04/26 04:34:06;;;;;;;11.07;2.90;;;14.10;72.70;;;14.39;51.85;94693.72;5056079;28;20463;-57
2022/04/26 04:36:33;;;;;;;9.03;2.90;;;14.10;72.50;;;14.45;51.79;94694.84;5053714;28;20498;-57
2022/04/26 04:39:02;;;;;;;17.53;2.80;;;14.20;72.60;;;14.49;51.65;94681.13;5055352;28;20593;-56
2022/04/26 04:41:35;;;;;;;9.40;3.20;;;14.20;72.40;;;14.55;51.63;94695.50;5052858;28;20474;-57
2022/04/26 04:44:05;;;;;;;15.90;2.80;;;14.30;72.40;;;14.62;51.57;94698.31;5060901;28;20458;-56
2022/04/26 04:46:32;;;;;;;9.97;2.63;;;14.30;72.10;;;14.68;51.51;94697.66;5052665;28;20849;-57
2022/04/26 04:48:59;;;;;;;9.10;2.20;;;14.40;72.20;;;14.73;51.25;94697.13;5056803;28;20481;-56
2022/04/26 04:51:27;;;;;;;11.63;2.53;;;14.40;72.00;;;14.79;51.67;94699.09;5056328;28;20626;-57
2022/04/26 04:53:54;;;;;;;11.60;5.90;;;14.50;72.20;;;14.85;51.06;94695.78;5060080;28;20460;-56
2022/04/26 04:56:24;;;;;;;9.80;2.87;;;14.60;71.70;;;14.90;50.65;94698.72;5056536;28;20594;-57
2022/04/26 04:58:52;;;;;;;14.23;3.60;;;14.60;70.70;;;14.97;50.61;94696.25;5059186;28;20802;-56
2022/04/26 05:01:19;;;;;;;17.03;4.53;;;14.70;70.20;;;15.04;50.08;94699.84;5058945;28;20513;-58
2022/04/26 05:03:46;;;;;;;5.13;2.20;;;14.70;69.90;;;15.12;50.43;94701.63;5058699;28;20939;-56
2022/04/26 05:06:15;;;;;;;18.83;2.73;;;14.80;69.80;;;15.19;49.82;94702.59;5059911;28;20470;-57
2022/04/26 05:08:42;;;;;;;20.30;2.90;;;14.90;69.30;;;15.28;49.68;94706.06;5058601;28;20444;-56
2022/04/26 05:11:10;;;;;;;5.17;1.90;;;15.00;69.20;;;15.35;49.60;94709.66;5059236;28;20460;-56
2022/04/26 05:13:39;;;;;;;8.10;2.33;;;15.00;68.60;;;15.42;49.47;94714.09;5055469;28;20455;-57
2022/04/26 05:16:06;;;;;;;11.07;1.90;;;15.10;68.70;;;15.51;49.51;94716.72;5055401;28;20486;-56
2022/04/26 05:18:33;;;;;;;6.60;2.00;;;15.20;68.20;;;15.60;49.30;94718.31;5060078;28;20566;-56
2022/04/26 05:21:00;;;;;;;3.47;1.93;;;15.30;68.30;;;15.69;48.93;94714.63;5055240;28;20890;-56
2022/04/26 05:26:12;;;;;;;15.63;2.00;;;15.50;67.50;;;15.98;48.70;94714.94;5051267;28;20449;-57
2022/04/26 05:28:41;;;;;;;7.60;1.60;;;15.60;67.20;;;16.15;48.36;94720.97;5048919;28;20439;-58
2022/04/26 05:31:09;;;;;;;16.23;2.33;;;15.80;66.90;;;16.35;48.08;94718.66;5055800;28;20475;-57
2022/04/26 05:33:36;;;;;;;4.30;2.07;;;15.90;66.30;;;16.56;47.82;94720.59;5059940;28;20467;-57
2022/04/26 05:36:04;;;;;;;4.77;1.67;;;16.10;65.90;;;16.78;47.72;94719.72;5059980;28;20491;-60
2022/04/26 05:38:31;;;;;;;5.20;1.90;;;16.30;65.60;;;17.02;47.39;94721.34;5053233;28;20451;-54
2022/04/26 05:40:58;;;;;;;8.83;2.23;;;16.60;65.60;;;17.30;47.11;94718.00;5061929;28;20819;-58
2022/04/26 05:43:26;;;;;;;7.50;2.07;;;16.80;65.00;;;17.52;47.10;94726.88;5059409;28;20459;-57
2022/04/26 05:45:54;;;;;;;12.20;2.40;;;17.00;64.50;;;17.76;46.78;94726.72;5056504;28;20540;-56
2022/04/26 05:48:22;;;;;;;13.20;2.97;;;17.30;64.20;;;18.03;46.79;94722.53;5057224;28;20967;-58
2022/04/26 05:50:49;;;;;;;5.73;2.40;;;17.50;64.00;;;18.30;46.30;94728.94;5058225;28;20577;-56
2022/04/26 05:53:16;;;;;;;11.13;2.03;;;17.80;64.10;;;18.58;45.99;94722.81;5061057;28;20467;-57
2022/04/26 05:55:43;;;;;;;8.97;1.60;;;18.00;63.60;;;18.84;45.84;94724.84;5053891;28;20609;-56
2022/04/26 05:58:11;;;;;;;8.90;2.40;;;18.30;63.20;;;19.09;45.65;94729.75;5056816;28;20453;-58
2022/04/26 06:00:38;;;;;;;10.57;2.33;;;18.50;62.00;;;19.32;45.35;94722.28;5060404;28;20474;-56
2022/04/26 06:03:07;;;;;;;8.50;2.10;;;18.80;61.10;;;19.58;44.42;94726.13;5053686;28;21196;-56
2022/04/26 06:05:35;;;;;;;15.13;5.70;;;19.00;60.70;;;19.82;44.22;94722.09;5053140;28;20491;-57
2022/04/26 06:08:03;;;;;;;13.23;4.00;;;19.20;60.20;;;20.09;44.07;94713.34;5049607;28;20444;-56
2022/04/26 06:10:30;;;;;;;22.80;8.23;;;19.50;59.50;;;20.32;43.87;94716.44;5051266;28;20474;-57
2022/04/26 06:12:57;;;;;;;21.20;6.23;;;19.70;59.70;;;20.54;43.64;94705.56;5048189;28;20451;-57
2022/04/26 06:15:25;;;;;;;16.87;5.90;;;19.90;59.20;;;20.73;43.20;94701.28;5051384;28;20490;-58
2022/04/26 06:17:52;;;;;;;6.97;3.83;;;20.20;58.60;;;20.92;42.89;94702.28;5049146;28;20448;-57
2022/04/26 06:20:23;;;;;;;14.57;4.17;;;20.30;58.10;;;21.15;42.77;94704.50;5056123;28;20470;-56
2022/04/26 06:22:50;;;;;;;9.47;3.83;;;20.50;57.40;;;21.38;42.28;94698.69;5054693;28;20454;-56
2022/04/26 06:25:17;;;;;;;5.40;3.10;;;20.70;57.00;;;21.61;41.82;94697.38;5057092;28;20476;-57
2022/04/26 06:27:45;;;;;;;5.20;1.93;;;21.00;56.00;;;21.76;41.26;94691.75;5054709;28;20451;-57
2022/04/26 06:30:14;;;;;;;8.50;2.43;;;21.20;54.80;;;21.91;40.93;94696.84;5055781;28;20471;-56
2022/04/26 06:32:43;;;;;;;7.87;2.70;;;21.30;54.30;;;22.07;40.69;94690.94;5054396;28;20486;-57
2022/04/26 06:35:10;;;;;;;5.77;2.77;;;21.40;54.30;;;22.30;40.25;94692.25;5056232;28;20647;-57
2022/04/26 06:37:39;;;;;;;14.97;2.50;;;21.70;53.90;;;22.54;40.10;94686.13;5057987;28;20650;-58
2022/04/26 06:40:08;;;;;;;8.50;2.27;;;21.90;53.40;;;22.79;39.46;94696.00;5058056;28;20478;-55
2022/04/26 06:42:35;;;;;;;10.33;2.00;;;22.10;52.40;;;23.03;39.42;94690.81;5059132;28;20507;-56
2022/04/26 06:45:02;;;;;;;7.53;2.40;;;22.30;51.80;;;23.24;39.02;94690.44;5055751;28;20549;-56
2022/04/26 06:47:30;;;;;;;4.27;1.80;;;22.60;51.20;;;23.44;38.40;94690.22;5051518;28;20965;-59
2022/04/26 06:49:57;;;;;;;6.13;1.93;;;22.80;50.60;;;23.61;38.01;94686.94;5052198;28;20473;-57
2022/04/26 06:52:25;;;;;;;22.70;1.50;;;22.90;50.20;;;23.78;37.15;94685.25;5057098;28;20453;-57
2022/04/26 06:54:53;;;;;;;4.10;1.40;;;23.10;49.50;;;24.01;36.55;94682.91;5052630;28;20807;-56
2022/04/26 06:57:21;;;;;;;5.10;1.60;;;23.40;48.80;;;24.22;36.99;94689.66;5048687;28;20920;-58
2022/04/26 06:59:49;;;;;;;4.50;1.40;;;23.60;48.40;;;24.42;35.71;94686.66;5051573;28;20478;-58
2022/04/26 07:02:16;;;;;;;8.50;1.80;;;23.80;47.90;;;24.49;35.46;94681.97;5062171;28;20451;-56
2022/04/26 07:04:44;;;;;;;11.17;2.30;;;23.90;47.10;;;24.46;36.08;94685.97;5052015;28;20479;-57
2022/04/26 07:07:11;;;;;;;3.30;2.27;;;23.90;46.80;;;24.51;35.45;94686.06;5052869;28;20451;-57
2022/04/26 07:09:39;;;;;;;10.20;1.37;;;23.90;47.00;;;24.57;35.62;94676.31;5054084;28;20459;-57
2022/04/26 07:12:09;;;;;;;5.50;0.97;;;23.90;46.30;;;24.67;35.15;94681.09;5060084;28;21012;-57
2022/04/26 07:14:36;;;;;;;6.00;1.60;;;24.00;46.30;;;24.73;34.71;94680.16;5058740;28;20470;-57
2022/04/26 07:17:04;;;;;;;9.90;1.70;;;24.10;45.50;;;24.90;35.06;94680.28;5058469;28;20508;-56
2022/04/26 07:19:34;;;;;;;6.53;1.77;;;24.20;45.80;;;25.18;34.04;94681.44;5057867;28;20446;-55
2022/04/26 07:22:03;;;;;;;3.57;1.10;;;24.50;45.50;;;25.45;34.21;94681.78;5059677;28;20926;-55
2022/04/26 07:24:31;;;;;;;2.80;0.90;;;24.70;45.10;;;25.65;33.81;94684.06;5062125;28;20504;-55
2022/04/26 07:26:58;;;;;;;2.77;1.10;;;24.90;44.30;;;25.75;33.08;94681.59;5056459;28;20474;-56
2022/04/26 07:29:27;;;;;;;7.03;1.40;;;25.10;44.20;;;25.91;33.13;94684.59;5063355;28;20870;-56
2022/04/26 07:31:54;;;;;;;5.83;1.30;;;25.20;44.10;;;26.06;32.93;94676.00;5053168;28;20466;-55
2022/04/26 07:34:21;;;;;;;6.90;1.60;;;25.40;44.00;;;26.29;33.23;94677.78;5051476;28;20456;-57
2022/04/26 07:36:49;;;;;;;2.20;1.10;;;25.60;43.70;;;26.57;32.57;94682.28;5055721;28;20664;-56
2022/04/26 07:39:17;;;;;;;5.90;1.63;;;25.80;43.30;;;26.89;32.50;94678.22;5055539;28;20447;-56
2022/04/26 07:41:46;;;;;;;6.90;1.57;;;26.10;42.70;;;27.19;31.88;94683.25;5051380;28;20586;-60
2022/04/26 07:44:14;;;;;;;7.47;1.37;;;26.40;42.70;;;27.50;31.67;94683.69;5051345;28;20636;-57
2022/04/26 07:46:44;;;;;;;9.03;1.80;;;26.80;42.00;;;27.79;31.25;94680.78;5061300;28;20514;-57
2022/04/26 07:49:11;;;;;;;9.37;1.97;;;27.00;40.90;;;28.02;30.37;94677.81;5052366;28;20531;-57
2022/04/26 07:51:39;;;;;;;6.17;1.53;;;27.30;40.10;;;28.27;30.71;94679.16;5054965;28;20474;-57
2022/04/26 07:54:06;;;;;;;2.77;1.27;;;27.60;40.40;;;28.54;29.59;94671.03;5059034;28;20650;-58
2022/04/26 07:56:34;;;;;;;5.47;1.87;;;27.90;40.00;;;28.81;29.69;94675.59;5054615;28;20493;-57
2022/04/26 07:59:03;;;;;;;10.37;1.67;;;28.10;39.70;;;29.07;29.25;94673.09;5059842;28;20826;-54
2022/04/26 08:01:31;;;;;;;8.37;1.87;;;28.40;39.00;;;29.32;29.13;94680.56;5056407;28;20474;-56
2022/04/26 08:03:59;;;;;;;12.30;1.37;;;28.60;38.60;;;29.52;29.41;94671.72;5058516;28;20778;-57
2022/04/26 08:06:27;;;;;;;4.97;1.27;;;28.80;38.40;;;29.68;29.09;94678.88;5055463;28;20471;-57
2022/04/26 08:08:54;;;;;;;6.00;1.13;;;29.00;37.70;;;29.86;27.84;94674.88;5056171;28;20974;-57
2022/04/26 08:11:22;;;;;;;4.00;1.47;;;29.20;37.40;;;29.99;27.65;94675.47;5054487;28;20467;-57
2022/04/26 08:13:49;;;;;;;5.53;1.30;;;29.40;36.20;;;29.78;27.10;94675.38;5055332;28;20457;-55
2022/04/26 08:16:17;;;;;;;7.87;1.80;;;29.30;35.90;;;29.50;27.48;94677.41;5056899;28;20521;-56
2022/04/26 08:18:44;;;;;;;4.47;1.43;;;29.20;36.20;;;29.34;28.15;94667.56;5061046;28;20454;-57
2022/04/26 08:21:14;;;;;;;4.80;1.33;;;29.00;36.40;;;29.43;28.47;94676.03;5049693;28;20517;-57
2022/04/26 08:29:07;;;;;;;3.13;1.20;;;29.30;37.00;;;30.31;27.94;94671.75;5053081;28;20560;-55
2022/04/26 08:31:35;;;;;;;4.30;1.50;;;29.60;36.80;;;30.53;28.05;94666.88;5052261;28;20478;-55
2022/04/26 08:34:03;;;;;;;7.47;1.17;;;29.80;36.30;;;30.66;27.29;94670.16;5049996;28;20525;-57
2022/04/26 08:36:32;;;;;;;5.33;1.30;;;30.00;36.30;;;30.84;27.62;94668.81;5059419;28;20862;-58
2022/04/26 08:39:00;;;;;;;4.80;1.87;;;30.20;36.00;;;30.97;26.04;94678.28;5055272;28;20209;-57
2022/04/26 08:41:27;;;;;;;18.83;1.40;;;30.30;34.40;;;30.99;26.64;94668.00;5058457;28;20472;-56
2022/04/26 08:43:54;;;;;;;3.33;1.60;;;30.40;35.20;;;31.00;26.63;94662.31;5055955;28;20450;-54
2022/04/26 08:46:22;;;;;;;5.97;1.53;;;30.40;35.20;;;31.09;27.13;94665.25;5057627;28;20486;-54
2022/04/26 08:52:01;;;;;;;6.20;1.77;;;30.50;35.30;;;31.24;27.14;94669.88;5057241;28;20558;-58
2022/04/26 08:54:30;;;;;;;3.80;1.83;;;30.60;35.20;;;31.33;26.71;94673.66;5053351;28;20479;-56
2022/04/26 08:56:58;;;;;;;9.17;1.93;;;30.70;34.80;;;31.22;26.71;94669.34;5055273;28;20491;-57
2022/04/26 08:59:25;;;;;;;5.27;1.60;;;30.60;34.30;;;31.10;26.88;94665.00;5052988;28;20455;-55
2022/04/26 09:02:13;;;;;;;10.40;2.47;;;30.50;34.80;;;31.10;27.15;94662.28;5049258;28;20559;-56
2022/04/26 09:04:41;;;;;;;4.73;2.20;;;30.50;35.20;;;31.14;27.22;94673.44;5055710;28;20956;-56
2022/04/26 09:07:12;;;;;;;16.50;2.50;;;30.40;35.50;;;31.20;27.46;94668.78;5060991;28;20442;-55
2022/04/26 09:09:40;;;;;;;15.13;3.17;;;30.50;35.60;;;31.35;27.90;94668.75;5047160;28;20492;-54
2022/04/26 09:12:10;;;;;;;13.27;1.73;;;30.70;35.90;;;31.55;27.61;94658.94;5052183;28;20506;-58
2022/04/26 09:14:41;;;;;;;10.70;2.77;;;30.80;36.00;;;31.63;27.14;94661.06;5048583;28;20539;-56
2022/04/26 09:17:10;;;;;;;11.53;2.70;;;30.90;35.30;;;31.44;26.77;94653.50;5053047;28;20518;-55
2022/04/26 09:19:44;;;;;;;10.60;2.30;;;30.90;35.00;;;31.17;26.79;94661.19;5059156;28;20494;-56
2022/04/26 09:22:18;;;;;;;8.07;2.50;;;30.70;34.90;;;31.05;27.30;94650.63;5050738;28;20529;-56
2022/04/26 09:24:56;;;;;;;13.33;3.10;;;30.50;35.60;;;31.18;27.05;94654.66;5057697;28;20839;-56
2022/04/26 09:27:24;;;;;;;9.30;2.33;;;30.50;35.70;;;31.27;27.60;94661.97;5055311;28;20450;-55
2022/04/26 09:29:51;;;;;;;12.63;2.87;;;30.60;35.60;;;31.31;27.39;94651.38;5055820;28;20343;-56
2022/04/26 09:32:19;;;;;;;20.23;2.77;;;30.70;35.60;;;31.29;27.12;94645.38;5054939;28;20211;-58
2022/04/26 09:34:46;;;;;;;13.67;2.90;;;30.70;35.20;;;31.35;27.69;94649.72;5057035;28;20214;-55
2022/04/26 09:37:14;;;;;;;8.17;2.40;;;30.70;35.40;;;31.52;27.11;94643.97;5053222;28;20205;-55
2022/04/26 09:39:57;;;;;;;24.03;2.80;;;30.90;35.50;;;31.69;27.42;94643.66;5057853;28;20687;-55
2022/04/26 09:42:31;;;;;;;13.33;2.77;;;31.00;35.40;;;31.88;26.49;94648.47;5050379;28;20262;-57
2022/04/26 09:45:06;;;;;;;12.47;2.90;;;31.20;35.10;;;31.99;26.71;94647.31;5050091;28;20512;-55
2022/04/26 09:47:37;;;;;;;21.10;2.43;;;31.30;34.70;;;32.05;26.69;94640.75;5061920;28;20227;-55
2022/04/26 09:50:06;;;;;;;14.90;2.77;;;31.40;34.30;;;31.99;26.44;94636.41;5047351;28;20697;-55
2022/04/26 09:52:34;;;;;;;22.63;3.23;;;31.40;34.90;;;32.01;27.09;94634.25;5049534;28;20681;-57
2022/04/26 09:55:04;;;;;;;15.23;3.23;;;31.40;35.20;;;32.12;27.16;94641.28;5044317;28;21188;-56
2022/04/26 09:57:33;;;;;;;14.83;2.80;;;31.40;35.40;;;32.13;26.72;94634.75;5051799;28;20197;-56
2022/04/26 10:00:00;;;;;;;18.27;3.53;;;31.40;34.30;;;32.05;26.72;94624.41;5050339;28;20558;-56
2022/04/26 10:02:31;;;;;;;17.57;3.10;;;31.40;34.30;;;31.99;26.80;94629.09;5052540;28;20208;-56
2022/04/26 10:05:03;;;;;;;11.77;2.67;;;31.40;34.30;;;31.90;26.46;94640.81;5053070;28;20339;-56
2022/04/26 10:07:33;;;;;;;26.00;3.37;;;31.20;34.30;;;31.66;26.86;94627.09;5056609;28;20256;-57
2022/04/26 10:10:02;;;;;;;9.33;2.90;;;31.00;34.50;;;31.50;26.87;94618.16;5053410;28;20235;-55
2022/04/26 10:12:29;;;;;;;13.07;2.60;;;30.90;34.60;;;31.57;26.83;94633.13;5053981;28;20207;-56
2022/04/26 10:14:57;;;;;;;14.40;2.83;;;31.00;35.00;;;31.63;26.43;94623.81;5056173;28;20224;-57
2022/04/26 10:17:24;;;;;;;12.13;2.63;;;31.00;34.70;;;31.59;26.46;94617.31;5056328;28;20205;-56
2022/04/26 10:19:51;;;;;;;8.60;2.33;;;31.00;34.20;;;31.42;26.80;94616.84;5057154;28;20764;-56
2022/04/26 10:22:25;;;;;;;22.83;2.67;;;30.80;34.30;;;31.30;27.23;94619.84;5054573;28;20219;-54
2022/04/26 10:25:21;;;;;;;17.97;3.17;;;30.70;33.90;;;31.29;26.34;94615.50;5053472;28;20220;-55
2022/04/26 10:28:23;;;;;;;15.63;3.50;;;30.70;34.60;;;31.28;26.29;94608.44;5037433;28;20307;-54
2022/04/26 10:30:50;;;;;;;9.33;2.77;;;30.60;33.80;;;31.30;26.55;94611.69;5047009;28;20228;-57
2022/04/26 10:33:37;;;;;;;8.63;3.10;;;30.60;33.90;;;31.32;26.92;94606.78;5049785;28;20215;-58
2022/04/26 10:36:35;;;;;;;18.43;2.70;;;30.70;34.40;;;31.37;25.45;94603.25;5049651;28;20232;-55
2022/04/26 10:39:25;;;;;;;8.67;3.07;;;30.70;33.30;;;31.34;25.95;94599.19;5036217;28;20236;-55
2022/04/26 10:41:54;;;;;;;24.53;3.17;;;30.70;33.80;;;31.32;25.92;94595.13;5048524;28;20222;-57
2022/04/26 10:44:34;;;;;;;13.50;3.20;;;30.70;33.50;;;31.32;25.42;94601.34;5062937;28;20208;-56
2022/04/26 10:47:29;;;;;;;7.07;2.43;;;30.70;33.10;;;31.25;25.58;94595.41;5052178;28;20569;-57
2022/04/26 10:49:59;;;;;;;14.63;3.50;;;30.60;32.40;;;31.13;26.06;94589.47;5053556;28;20677;-57
2022/04/26 10:52:50;;;;;;;16.10;2.93;;;30.50;33.00;;;31.10;26.08;94582.69;5062598;28;20322;-56
2022/04/26 10:55:20;;;;;;;12.33;2.23;;;30.50;33.80;;;31.04;26.44;94581.88;5053034;28;20226;-55
2022/04/26 10:57:50;;;;;;;25.63;2.40;;;30.40;33.30;;;30.87;25.41;94579.44;5059250;28;20674;-57
2022/04/26 11:00:28;;;;;;;6.10;1.97;;;30.30;33.10;;;30.67;26.02;94583.00;5057751;28;20286;-56
2022/04/26 11:03:02;;;;;;;9.47;2.13;;;30.10;33.00;;;30.60;25.68;94590.63;5057711;28;20207;-56
2022/04/26 11:05:32;;;;;;;5.50;2.03;;;30.00;32.60;;;30.35;25.35;94573.25;5056619;28;20225;-56
2022/04/26 11:07:59;;;;;;;6.63;1.70;;;29.80;32.30;;;30.01;25.82;94568.34;5057660;28;20485;-56
2022/04/26 11:11:00;;;;;;;10.50;2.07;;;29.60;32.10;;;29.84;25.54;94574.00;5056438;28;20220;-57
2022/04/26 11:13:37;;;;;;;12.60;1.93;;;29.40;33.00;;;29.75;25.90;94574.78;5059112;28;20196;-57
2022/04/26 11:16:13;;;;;;;18.47;2.77;;;29.20;33.00;;;29.64;25.95;94563.91;5059458;28;20220;-57
2022/04/26 11:18:42;;;;;;;10.13;1.83;;;29.10;32.90;;;29.57;25.76;94565.22;5057738;28;20442;-55
2022/04/26 11:21:14;;;;;;;11.80;2.27;;;29.00;32.80;;;29.51;26.38;94569.81;5057803;28;20463;-57
2022/04/26 11:29:26;;;;;;;10.13;2.47;;;28.80;33.20;;;29.29;25.67;94564.59;5059807;28;20489;-56
2022/04/26 11:31:55;;;;;;;12.83;2.17;;;28.70;33.20;;;29.35;26.19;94560.03;5055275;28;20482;-55
2022/04/26 11:34:49;;;;;;;9.47;1.70;;;28.70;33.90;;;29.49;25.92;94558.44;5055797;28;20948;-59
2022/04/26 11:37:16;;;;;;;8.73;1.80;;;28.80;33.90;;;29.55;26.69;94565.50;5058188;28;20460;-57
2022/04/26 11:39:44;;;;;;;7.83;2.00;;;28.90;33.80;;;29.31;26.52;94560.56;5056464;28;20946;-57
2022/04/26 11:42:12;;;;;;;8.93;2.30;;;28.80;33.40;;;29.18;26.42;94550.16;5058952;28;20469;-54
2022/04/26 11:44:59;;;;;;;10.47;2.60;;;28.60;33.50;;;29.06;26.02;94549.56;5056776;28;20515;-56
2022/04/26 11:47:49;;;;;;;12.90;1.83;;;28.50;33.60;;;28.85;26.34;94546.78;5058809;28;20983;-58
2022/04/26 11:50:19;;;;;;;7.50;2.27;;;28.40;33.70;;;28.81;26.33;94539.44;5055795;28;21059;-57
2022/04/26 11:52:46;;;;;;;3.33;1.77;;;28.20;33.90;;;28.68;26.88;94540.72;5059599;28;20446;-56
2022/04/26 11:55:26;;;;;;;12.10;2.57;;;28.20;33.90;;;28.50;27.02;94531.91;5060267;28;20552;-56
2022/04/26 11:57:53;;;;;;;7.50;1.97;;;28.00;34.20;;;28.36;26.82;94528.03;5055119;28;20454;-56
2022/04/26 12:00:23;;;;;;;9.77;1.97;;;27.80;34.20;;;28.22;27.26;94533.06;5059902;28;20475;-56
2022/04/26 12:02:50;;;;;;;4.33;1.70;;;27.70;34.40;;;28.11;26.94;94532.19;5048779;28;20530;-57
2022/04/26 12:05:21;;;;;;;7.60;2.23;;;27.60;34.30;;;28.09;27.75;94518.09;5053828;28;20614;-56
2022/04/26 12:07:49;;;;;;;10.33;2.10;;;27.50;34.80;;;28.18;27.97;94530.06;5046912;28;20951;-54
2022/04/26 12:10:27;;;;;;;5.13;2.13;;;27.60;35.30;;;28.30;27.95;94520.97;5050714;28;20563;-56
2022/04/26 12:12:58;;;;;;;14.90;2.13;;;27.70;35.30;;;28.45;27.22;94515.66;5051448;28;20661;-56
2022/04/26 12:15:28;;;;;;;11.30;2.50;;;27.80;35.00;;;28.50;27.22;94504.03;5055599;28;21035;-56
2022/04/26 12:18:13;;;;;;;6.73;1.63;;;27.90;34.60;;;28.51;26.96;94506.50;5052776;28;20478;-56
2022/04/26 12:20:59;;;;;;;11.03;2.00;;;27.90;34.20;;;28.51;26.23;94511.09;5060179;28;20481;-57
2022/04/26 12:23:27;;;;;;;14.70;2.43;;;27.90;34.00;;;28.46;26.69;94511.03;5056637;28;20442;-55
2022/04/26 12:25:56;;;;;;;8.53;2.27;;;27.90;33.80;;;28.40;26.53;94510.22;5058463;28;20471;-56
2022/04/26 12:28:23;;;;;;;3.37;2.03;;;27.80;34.10;;;28.43;26.36;94501.56;5056662;28;20591;-58
2022/04/26 12:30:52;;;;;;;8.70;1.60;;;27.80;34.00;;;28.43;26.57;94496.16;5058066;28;20467;-56
2022/04/26 12:33:30;;;;;;;10.50;2.60;;;27.80;33.50;;;28.37;25.60;94492.59;5055022;28;20506;-57
2022/04/26 12:36:02;;;;;;;21.23;2.50;;;27.80;33.00;;;28.31;26.58;94490.13;5057927;28;21109;-57
2022/04/26 12:38:30;;;;;;;13.63;1.90;;;27.70;33.40;;;28.32;26.26;94495.28;5055219;28;20550;-57
2022/04/26 12:41:05;;;;;;;8.30;2.13;;;27.70;33.70;;;28.32;25.96;94500.69;5055927;28;20466;-55
2022/04/26 12:43:32;;;;;;;7.10;2.00;;;27.70;33.30;;;28.26;25.89;94493.63;5058226;28;20846;-58
2022/04/26 12:46:02;;;;;;;9.37;2.37;;;27.70;33.10;;;28.14;26.25;94482.97;5054707;28;20482;-57
2022/04/26 12:51:20;;;;;;;6.30;1.87;;;27.50;33.60;;;27.97;26.56;94485.84;5047972;28;20486;-57
2022/04/26 12:53:49;;;;;;;6.70;1.83;;;27.40;33.40;;;27.90;26.34;94487.91;5048433;28;20906;-55
2022/04/26 12:56:17;;;;;;;5.57;2.07;;;27.30;33.50;;;27.88;25.97;94490.84;5050487;28;20985;-56
2022/04/26 12:58:46;;;;;;;5.77;2.00;;;27.30;33.20;;;27.87;26.48;94491.94;5049686;28;20563;-56
2022/04/26 13:01:15;;;;;;;10.40;2.20;;;27.30;33.80;;;27.80;26.58;94521.06;5056723;28;20505;-57
2022/04/26 13:03:43;;;;;;;18.23;2.80;;;27.30;33.70;;;27.42;27.70;94498.56;5052953;28;20450;-57
2022/04/26 13:06:12;;;;;;;13.07;1.73;;;27.00;35.50;;;26.91;29.11;94514.13;5058156;28;20909;-56
2022/04/26 13:08:43;;;;;;;24.07;2.03;;;26.60;36.70;;;26.31;30.42;94500.38;5056507;28;20517;-58
2022/04/26 13:11:11;;;;;;;13.70;1.87;;;26.10;38.20;;;25.71;31.41;94526.88;5056085;28;20946;-57
2022/04/26 13:13:39;;;;;;;2.60;1.60;;;25.50;39.10;;;25.14;31.65;94508.03;5057461;28;20446;-55
2022/04/26 13:16:07;;;;;;;10.20;2.47;;;24.90;40.10;;;24.73;33.17;94513.41;5056362;28;20601;-57
2022/04/26 13:18:36;;;;;;;18.87;2.00;;;24.60;41.20;;;24.48;33.13;94521.72;5056486;28;20439;-57
2022/04/26 13:21:03;;;;;;;23.07;2.23;;;24.20;41.20;;;24.28;32.82;94538.22;5056367;28;20471;-56
2022/04/26 13:23:32;;;;;;;16.07;2.13;;;24.00;41.20;;;24.10;33.87;94547.19;5053932;28;20446;-58
2022/04/26 13:26:00;;;;;;;17.00;1.80;;;23.80;42.00;;;23.88;33.96;94547.72;5054379;28;20929;-58
2022/04/26 13:28:27;;;;;;;7.03;1.90;;;23.60;42.20;;;23.70;33.62;94561.19;5052818;28;20861;-58
2022/04/26 13:31:23;;;;;;;11.03;2.40;;;23.40;42.30;;;23.42;35.02;94543.84;5050176;28;20479;-56
2022/04/26 13:33:52;;;;;;;14.50;2.23;;;23.10;43.20;;;23.14;35.13;94544.44;5049395;28;20463;-56
2022/04/26 13:36:19;;;;;;;17.73;1.57;;;22.90;43.40;;;22.97;35.13;94534.28;5050582;28;20475;-58
2022/04/26 13:38:46;;;;;;;9.83;1.70;;;22.70;43.90;;;22.83;35.60;94532.81;5055093;28;20456;-57
2022/04/26 13:41:14;;;;;;;8.93;1.83;;;22.50;44.30;;;22.68;35.53;94519.75;5049858;28;20474;-56
2022/04/26 13:43:42;;;;;;;16.97;1.77;;;22.40;44.40;;;22.59;36.02;94523.78;5049015;28;20513;-57
2022/04/26 13:46:10;;;;;;;6.47;1.10;;;22.20;44.40;;;22.48;35.70;94509.25;5059594;28;20930;-56
2022/04/26 13:48:38;;;;;;;9.10;1.77;;;22.10;44.60;;;22.39;35.85;94506.06;5049784;28;20548;-57
2022/04/26 13:51:07;;;;;;;8.73;1.60;;;22.00;44.50;;;22.28;35.81;94510.28;5054369;28;20467;-59
2022/04/26 13:53:34;;;;;;;3.13;1.57;;;21.90;44.80;;;22.15;36.62;94511.22;5058861;28;20446;-55
2022/04/26 13:56:06;;;;;;;4.43;1.40;;;21.80;45.30;;;22.05;36.64;94523.47;5054513;28;21113;-54
2022/04/26 13:58:33;;;;;;;5.00;1.30;;;21.70;45.60;;;21.93;36.74;94524.19;5054803;28;20482;-57
2022/04/26 14:01:01;;;;;;;6.07;1.50;;;21.60;45.80;;;21.88;37.16;94534.72;5056126;28;20494;-55
2022/04/26 14:03:28;;;;;;;5.00;1.40;;;21.50;46.20;;;21.84;37.17;94542.38;5054418;28;20505;-55
2022/04/26 14:05:56;;;;;;;2.20;1.40;;;21.40;46.20;;;21.83;37.61;94556.81;5055640;28;20466;-55
2022/04/26 14:08:25;;;;;;;5.13;1.70;;;21.40;46.60;;;21.84;37.55;94545.06;5058927;28;20490;-57
2022/04/26 14:10:52;;;;;;;11.77;1.37;;;21.40;46.60;;;21.89;37.24;94568.53;5052092;28;20486;-56
2022/04/26 14:13:20;;;;;;;3.80;1.47;;;21.40;46.60;;;21.89;37.56;94587.25;5058081;28;20443;-57
2022/04/26 14:24:03;;;;;;;8.77;1.93;;;21.60;46.60;;;22.12;37.26;94624.19;5053208;28;20487;-58
2022/04/26 14:26:31;;;;;;;14.53;1.67;;;21.60;46.60;;;22.17;37.19;94635.03;5055142;28;20634;-56
2022/04/26 14:28:58;;;;;;;1.37;0.90;;;21.70;46.40;;;22.21;37.83;94643.47;5051175;28;20514;-55
2022/04/26 14:31:26;;;;;;;19.73;2.87;;;21.80;47.20;;;22.15;39.11;94652.38;5055476;28;20549;-57